Time;durP1;ratioP1;P1;durP2;ratioP2;P2;SDS_P1;SDS_P2;PMS_P1;PMS_P2;Temp;Humidity;BMP_temperature;BMP_pressure;BME280_temperature;BME280_humidity;BME280_pressure;Samples;Min_cycle;Max_cycle;Signal;HPM_P1;HPM_P2
2021/11/27 00:01:17;;;;;;;4.18;1.35;;;;;;;;;;5086254;28;20020;-42
2021/11/27 00:03:42;;;;;;;4.05;1.52;;;;;;;;;;5081749;28;20035;-42
2021/11/27 00:06:08;;;;;;;12.18;1.77;;;;;;;;;;5086332;28;20040;-39
2021/11/27 00:08:34;;;;;;;1.70;1.02;;;;;;;;;;5084222;28;20024;-39
2021/11/27 00:11:00;;;;;;;1.67;1.08;;;;;;;;;;5084745;28;20026;-38
2021/11/27 00:13:25;;;;;;;2.83;1.38;;;;;;;;;;5083471;28;20667;-38
2021/11/27 00:15:51;;;;;;;7.47;2.97;;;;;;;;;;5085484;28;20442;-38
2021/11/27 00:18:17;;;;;;;5.35;1.55;;;;;;;;;;5085641;28;20110;-39
2021/11/27 00:20:48;;;;;;;3.00;1.20;;;;;;;;;;5086288;28;20016;-38
2021/11/27 00:23:13;;;;;;;4.87;2.07;;;;;;;;;;5085379;28;20070;-40
2021/11/27 00:25:40;;;;;;;5.65;2.33;;;;;;;;;;5086847;28;20446;-40
2021/11/27 00:28:06;;;;;;;3.88;1.02;;;;;;;;;;5085815;28;20073;-42
2021/11/27 00:30:34;;;;;;;4.63;3.13;;;;;;;;;;5085429;28;20061;-40
2021/11/27 00:33:00;;;;;;;5.68;1.50;;;;;;;;;;5085545;28;20017;-42
2021/11/27 00:35:25;;;;;;;10.85;2.72;;;;;;;;;;5086484;28;20047;-39
2021/11/27 00:37:51;;;;;;;9.75;4.55;;;;;;;;;;5086452;28;20023;-41
2021/11/27 00:40:17;;;;;;;8.60;4.40;;;;;;;;;;5086656;28;20471;-39
2021/11/27 00:42:43;;;;;;;8.45;5.20;;;;;;;;;;5090092;28;20020;-41
2021/11/27 00:45:12;;;;;;;7.10;4.07;;;;;;;;;;5089640;28;20024;-43
2021/11/27 00:47:38;;;;;;;6.30;2.35;;;;;;;;;;5090117;28;20020;-40
2021/11/27 00:50:04;;;;;;;2.78;0.93;;;;;;;;;;5090300;28;20051;-40
2021/11/27 00:52:30;;;;;;;2.40;1.10;;;;;;;;;;5088980;28;20394;-42
2021/11/27 00:54:55;;;;;;;3.20;1.35;;;;;;;;;;5089941;28;20032;-38
2021/11/27 00:57:20;;;;;;;4.68;1.40;;;;;;;;;;5090231;28;20009;-41
2021/11/27 00:59:46;;;;;;;3.60;1.10;;;;;;;;;;5090075;28;20015;-38
2021/11/27 01:02:11;;;;;;;3.35;1.42;;;;;;;;;;5090200;28;20018;-41
2021/11/27 01:04:37;;;;;;;3.40;1.52;;;;;;;;;;5090486;28;20031;-43
2021/11/27 01:07:04;;;;;;;3.58;1.77;;;;;;;;;;5081557;28;20063;-41
2021/11/27 01:09:29;;;;;;;8.35;3.42;;;;;;;;;;5086178;28;20020;-38
2021/11/27 01:11:55;;;;;;;4.88;2.72;;;;;;;;;;5088120;28;20411;-38
2021/11/27 01:14:23;;;;;;;9.40;3.55;;;;;;;;;;5085577;28;20450;-38
2021/11/27 01:16:52;;;;;;;8.38;4.95;;;;;;;;;;5090219;28;20028;-38
2021/11/27 01:19:19;;;;;;;5.28;3.17;;;;;;;;;;5089113;28;20028;-39
2021/11/27 01:21:46;;;;;;;4.55;1.70;;;;;;;;;;5090217;28;20332;-38
2021/11/27 01:24:13;;;;;;;1.48;0.50;;;;;;;;;;5089739;28;20020;-40
2021/11/27 01:26:39;;;;;;;1.85;0.77;;;;;;;;;;5088718;28;20077;-39
2021/11/27 01:29:05;;;;;;;1.45;1.02;;;;;;;;;;5089735;28;20106;-41
2021/11/27 01:31:30;;;;;;;3.63;0.77;;;;;;;;;;5087657;28;20023;-38
2021/11/27 01:33:56;;;;;;;3.50;1.27;;;;;;;;;;5089032;28;20015;-43
2021/11/27 01:36:22;;;;;;;2.33;0.95;;;;;;;;;;5088652;28;20099;-40
2021/11/27 01:38:47;;;;;;;1.73;0.90;;;;;;;;;;5088370;28;20142;-38
2021/11/27 01:41:14;;;;;;;3.80;2.22;;;;;;;;;;5089538;28;20050;-38
2021/11/27 01:43:40;;;;;;;2.53;0.85;;;;;;;;;;5089403;28;20016;-41
2021/11/27 01:46:06;;;;;;;2.95;0.35;;;;;;;;;;5088759;28;20045;-38
2021/11/27 01:48:35;;;;;;;2.45;0.88;;;;;;;;;;5089804;28;20514;-38
2021/11/27 01:51:20;;;;;;;1.30;0.40;;;;;;;;;;5087158;28;20433;-39
2021/11/27 01:53:47;;;;;;;4.35;0.57;;;;;;;;;;5085905;28;20031;-39
2021/11/27 01:56:15;;;;;;;3.25;0.80;;;;;;;;;;5088455;28;20128;-41
2021/11/27 01:58:40;;;;;;;2.20;0.50;;;;;;;;;;5089217;28;20028;-39
2021/11/27 02:01:09;;;;;;;4.45;0.82;;;;;;;;;;5089569;28;20027;-42
2021/11/27 02:03:34;;;;;;;0.90;0.50;;;;;;;;;;5087571;28;20087;-46
2021/11/27 02:06:00;;;;;;;3.95;0.68;;;;;;;;;;5087131;28;20024;-43
2021/11/27 02:08:25;;;;;;;0.47;0.40;;;;;;;;;;5089363;28;20043;-42
2021/11/27 02:10:51;;;;;;;3.58;0.38;;;;;;;;;;5086374;28;20569;-40
2021/11/27 02:13:19;;;;;;;3.80;0.77;;;;;;;;;;5089088;28;20395;-40
2021/11/27 02:15:45;;;;;;;1.42;0.57;;;;;;;;;;5086864;28;20052;-40
2021/11/27 02:18:10;;;;;;;0.98;0.57;;;;;;;;;;5087897;28;20540;-42
2021/11/27 02:20:57;;;;;;;4.82;1.17;;;;;;;;;;5087564;28;20477;-40
2021/11/27 02:23:25;;;;;;;1.42;0.80;;;;;;;;;;5085678;28;20016;-42
2021/11/27 02:25:54;;;;;;;4.60;0.65;;;;;;;;;;5086119;28;20077;-40
2021/11/27 02:28:19;;;;;;;1.23;0.40;;;;;;;;;;5087495;28;20020;-42
2021/11/27 02:30:44;;;;;;;2.80;1.00;;;;;;;;;;5085458;28;20487;-42
2021/11/27 02:33:10;;;;;;;0.90;0.35;;;;;;;;;;5087829;28;20034;-44
2021/11/27 02:35:35;;;;;;;1.83;1.15;;;;;;;;;;5087417;28;20032;-41
2021/11/27 02:38:01;;;;;;;1.90;0.50;;;;;;;;;;5085773;28;20020;-40
2021/11/27 02:40:26;;;;;;;4.68;1.17;;;;;;;;;;5087640;28;20016;-39
2021/11/27 02:42:52;;;;;;;1.13;0.43;;;;;;;;;;5088411;28;20102;-41
2021/11/27 02:45:17;;;;;;;1.02;0.60;;;;;;;;;;5087544;28;20491;-40
2021/11/27 02:47:43;;;;;;;1.42;0.85;;;;;;;;;;5087787;28;20039;-40
2021/11/27 02:50:09;;;;;;;2.33;0.40;;;;;;;;;;5085741;28;20024;-40
2021/11/27 02:52:35;;;;;;;1.13;0.70;;;;;;;;;;5084383;28;20028;-41
2021/11/27 02:55:03;;;;;;;2.67;0.40;;;;;;;;;;5084627;28;20016;-40
2021/11/27 02:57:29;;;;;;;1.75;0.88;;;;;;;;;;5086959;28;20034;-42
2021/11/27 02:59:55;;;;;;;0.95;0.45;;;;;;;;;;5086970;28;20474;-41
2021/11/27 03:02:20;;;;;;;0.52;0.38;;;;;;;;;;5087242;28;20016;-41
2021/11/27 03:04:49;;;;;;;3.60;0.70;;;;;;;;;;5086956;28;20467;-40
2021/11/27 03:07:15;;;;;;;3.28;0.45;;;;;;;;;;5087295;28;20115;-39
2021/11/27 03:09:40;;;;;;;4.57;0.88;;;;;;;;;;5086602;28;20095;-41
2021/11/27 03:12:06;;;;;;;0.65;0.40;;;;;;;;;;5083167;28;20093;-39
2021/11/27 03:14:31;;;;;;;9.57;1.40;;;;;;;;;;5084418;28;20036;-39
2021/11/27 03:16:57;;;;;;;0.22;0.17;;;;;;;;;;5081161;28;20027;-41
2021/11/27 03:19:22;;;;;;;2.83;0.55;;;;;;;;;;5086649;28;20476;-40
2021/11/27 03:21:47;;;;;;;8.25;0.85;;;;;;;;;;5087066;28;20016;-44
2021/11/27 03:24:13;;;;;;;1.20;0.50;;;;;;;;;;5087210;28;20028;-39
2021/11/27 03:26:39;;;;;;;2.80;0.75;;;;;;;;;;5084807;28;20020;-39
2021/11/27 03:29:05;;;;;;;2.30;1.13;;;;;;;;;;5086861;28;20592;-43
2021/11/27 03:31:31;;;;;;;0.28;0.15;;;;;;;;;;5086603;28;20034;-42
2021/11/27 03:33:56;;;;;;;6.93;0.57;;;;;;;;;;5087087;28;20050;-41
2021/11/27 03:36:21;;;;;;;1.83;0.60;;;;;;;;;;5085977;28;20063;-42
2021/11/27 03:38:47;;;;;;;1.05;0.25;;;;;;;;;;5086279;28;20028;-41
2021/11/27 03:41:13;;;;;;;0.90;0.47;;;;;;;;;;5086586;28;20104;-40
2021/11/27 03:43:39;;;;;;;1.23;0.40;;;;;;;;;;5085982;28;20023;-43
2021/11/27 03:46:05;;;;;;;1.50;0.75;;;;;;;;;;5086609;28;20037;-41
2021/11/27 03:48:32;;;;;;;3.03;0.85;;;;;;;;;;5086530;28;20390;-41
2021/11/27 03:50:58;;;;;;;5.25;1.42;;;;;;;;;;5084689;28;20126;-42
2021/11/27 03:53:25;;;;;;;6.07;1.20;;;;;;;;;;5086239;28;20081;-42
2021/11/27 03:55:51;;;;;;;4.22;1.40;;;;;;;;;;5086492;28;20052;-41
2021/11/27 03:58:17;;;;;;;1.60;0.80;;;;;;;;;;5085420;28;20722;-40
2021/11/27 04:00:43;;;;;;;0.88;0.52;;;;;;;;;;5086285;28;20111;-38
2021/11/27 04:03:11;;;;;;;3.83;0.73;;;;;;;;;;5085967;28;20015;-41
2021/11/27 04:05:41;;;;;;;6.15;0.70;;;;;;;;;;5086255;28;20028;-41
2021/11/27 04:08:06;;;;;;;1.17;0.60;;;;;;;;;;5077256;28;20115;-39
2021/11/27 04:10:32;;;;;;;1.35;0.63;;;;;;;;;;5083308;28;20106;-42
2021/11/27 04:12:57;;;;;;;3.05;0.70;;;;;;;;;;5083928;28;20077;-42
2021/11/27 04:15:23;;;;;;;1.45;0.57;;;;;;;;;;5084980;28;20139;-41
2021/11/27 04:17:49;;;;;;;0.80;0.30;;;;;;;;;;5085618;28;20339;-40
2021/11/27 04:20:14;;;;;;;3.15;0.88;;;;;;;;;;5085619;28;20023;-40
2021/11/27 04:22:40;;;;;;;0.20;0.13;;;;;;;;;;5085314;28;20016;-40
2021/11/27 04:25:05;;;;;;;2.13;0.45;;;;;;;;;;5085627;28;20541;-41
2021/11/27 04:27:31;;;;;;;0.75;0.30;;;;;;;;;;5084190;28;20121;-42
2021/11/27 04:29:56;;;;;;;1.33;0.52;;;;;;;;;;5086172;28;20388;-40
2021/11/27 04:32:21;;;;;;;0.47;0.25;;;;;;;;;;5084261;28;20024;-40
2021/11/27 04:34:47;;;;;;;1.65;0.50;;;;;;;;;;5084574;28;20012;-39
2021/11/27 04:37:14;;;;;;;1.77;0.70;;;;;;;;;;5085586;28;20032;-39
2021/11/27 04:39:40;;;;;;;0.30;0.17;;;;;;;;;;5085426;28;20019;-40
2021/11/27 04:42:05;;;;;;;1.17;0.30;;;;;;;;;;5085634;28;20028;-40
2021/11/27 04:44:30;;;;;;;0.30;0.25;;;;;;;;;;5085566;28;20502;-42
2021/11/27 04:46:56;;;;;;;1.88;0.45;;;;;;;;;;5086338;28;20020;-42
2021/11/27 04:49:21;;;;;;;1.00;0.63;;;;;;;;;;5085502;28;20032;-41
2021/11/27 04:51:46;;;;;;;0.90;0.57;;;;;;;;;;5085230;28;20054;-41
2021/11/27 04:54:12;;;;;;;4.60;1.10;;;;;;;;;;5085693;28;20063;-43
2021/11/27 04:56:37;;;;;;;0.85;0.38;;;;;;;;;;5085704;28;20032;-40
2021/11/27 04:59:03;;;;;;;0.95;0.25;;;;;;;;;;5086308;28;20099;-40
2021/11/27 05:01:29;;;;;;;0.22;0.22;;;;;;;;;;5085524;28;20123;-40
2021/11/27 05:03:54;;;;;;;0.80;0.57;;;;;;;;;;5085786;28;20026;-43
2021/11/27 05:06:20;;;;;;;1.17;0.40;;;;;;;;;;5083594;28;20102;-42
2021/11/27 05:08:45;;;;;;;0.30;0.20;;;;;;;;;;5084657;28;20106;-42
2021/11/27 05:11:11;;;;;;;3.83;0.85;;;;;;;;;;5083358;28;20016;-39
2021/11/27 05:13:39;;;;;;;3.45;1.05;;;;;;;;;;5082944;28;20107;-44
2021/11/27 05:16:05;;;;;;;1.40;0.30;;;;;;;;;;5085469;28;20040;-41
2021/11/27 05:18:30;;;;;;;1.33;0.38;;;;;;;;;;5085996;28;20024;-39
2021/11/27 05:20:56;;;;;;;2.90;0.70;;;;;;;;;;5085753;28;20455;-43
2021/11/27 05:23:21;;;;;;;5.75;0.80;;;;;;;;;;5083948;28;20126;-39
2021/11/27 05:25:46;;;;;;;4.05;0.50;;;;;;;;;;5086406;28;20422;-45
2021/11/27 05:28:12;;;;;;;1.95;1.17;;;;;;;;;;5088671;28;20099;-43
2021/11/27 05:30:37;;;;;;;1.38;0.32;;;;;;;;;;5086619;28;20485;-40
2021/11/27 05:35:28;;;;;;;9.43;0.63;;;;;;;;;;5088222;28;20498;-42
2021/11/27 05:37:53;;;;;;;2.25;0.60;;;;;;;;;;5089777;28;20437;-40
2021/11/27 05:40:19;;;;;;;2.50;0.50;;;;;;;;;;5089476;28;20071;-41
2021/11/27 05:42:44;;;;;;;10.13;1.10;;;;;;;;;;5089588;28;20099;-39
2021/11/27 05:45:10;;;;;;;2.05;0.40;;;;;;;;;;5088380;28;20445;-39
2021/11/27 05:47:38;;;;;;;2.83;1.10;;;;;;;;;;5087165;28;20031;-43
2021/11/27 05:50:04;;;;;;;6.00;1.40;;;;;;;;;;5088975;28;20019;-40
2021/11/27 05:52:30;;;;;;;7.72;1.63;;;;;;;;;;5088516;28;20016;-43
2021/11/27 05:54:55;;;;;;;2.03;1.33;;;;;;;;;;5087504;28;20031;-42
2021/11/27 05:57:20;;;;;;;2.53;1.02;;;;;;;;;;5087920;28;20055;-46
2021/11/27 05:59:46;;;;;;;1.55;0.47;;;;;;;;;;5088609;28;20038;-42
2021/11/27 06:02:12;;;;;;;2.55;0.77;;;;;;;;;;5086129;28;20082;-43
2021/11/27 06:04:37;;;;;;;1.63;0.70;;;;;;;;;;5085059;28;20013;-42
2021/11/27 06:07:02;;;;;;;5.75;1.08;;;;;;;;;;5088445;28;20028;-44
2021/11/27 06:09:28;;;;;;;4.38;0.35;;;;;;;;;;5088013;28;20024;-43
2021/11/27 06:11:53;;;;;;;2.20;0.38;;;;;;;;;;5087849;28;20123;-42
2021/11/27 06:14:18;;;;;;;4.82;0.93;;;;;;;;;;5088268;28;20399;-44
2021/11/27 06:16:44;;;;;;;1.75;0.55;;;;;;;;;;5087867;28;20115;-47
2021/11/27 06:19:09;;;;;;;3.70;0.35;;;;;;;;;;5088781;28;20040;-42
2021/11/27 06:21:35;;;;;;;3.03;1.30;;;;;;;;;;5088804;28;20024;-41
2021/11/27 06:24:00;;;;;;;2.92;1.63;;;;;;;;;;5088517;28;20058;-45
2021/11/27 06:26:26;;;;;;;10.27;2.22;;;;;;;;;;5088153;28;20102;-46
2021/11/27 06:28:51;;;;;;;7.25;3.13;;;;;;;;;;5088014;28;20081;-44
2021/11/27 06:31:17;;;;;;;3.33;2.33;;;;;;;;;;5084133;28;20031;-41
2021/11/27 06:33:42;;;;;;;5.80;1.85;;;;;;;;;;5086374;28;20042;-41
2021/11/27 06:36:08;;;;;;;9.77;4.53;;;;;;;;;;5087887;28;20355;-42
2021/11/27 06:38:33;;;;;;;12.57;4.07;;;;;;;;;;5087570;28;20376;-43
2021/11/27 06:40:59;;;;;;;12.85;3.17;;;;;;;;;;5088585;28;20084;-41
2021/11/27 06:43:24;;;;;;;6.63;2.97;;;;;;;;;;5086779;28;20176;-41
2021/11/27 06:45:50;;;;;;;4.45;2.65;;;;;;;;;;5088319;28;20657;-41
2021/11/27 06:48:15;;;;;;;10.27;1.73;;;;;;;;;;5086689;28;20028;-45
2021/11/27 06:50:41;;;;;;;8.80;1.58;;;;;;;;;;5085887;28;20023;-45
2021/11/27 06:53:06;;;;;;;3.50;1.60;;;;;;;;;;5087111;28;20031;-42
2021/11/27 06:55:32;;;;;;;3.00;1.27;;;;;;;;;;5087751;28;20300;-44
2021/11/27 06:57:57;;;;;;;2.63;1.30;;;;;;;;;;5087093;28;20019;-43
2021/11/27 07:00:23;;;;;;;3.20;2.13;;;;;;;;;;5087913;28;20024;-42
2021/11/27 07:02:48;;;;;;;4.80;1.83;;;;;;;;;;5088521;28;20065;-44
2021/11/27 07:05:13;;;;;;;3.88;2.15;;;;;;;;;;5087902;28;20193;-44
2021/11/27 07:07:39;;;;;;;4.32;2.38;;;;;;;;;;5088067;28;20359;-44
2021/11/27 07:10:05;;;;;;;4.90;1.70;;;;;;;;;;5084190;28;20612;-48
2021/11/27 07:12:30;;;;;;;5.35;2.03;;;;;;;;;;5082278;28;20329;-42
2021/11/27 07:14:56;;;;;;;5.05;1.95;;;;;;;;;;5087861;28;20495;-46
2021/11/27 07:17:21;;;;;;;7.18;1.20;;;;;;;;;;5088059;28;20475;-43
2021/11/27 07:19:46;;;;;;;1.10;0.80;;;;;;;;;;5084803;28;20019;-42
2021/11/27 07:22:11;;;;;;;1.55;0.57;;;;;;;;;;5087891;28;20016;-46
2021/11/27 07:24:37;;;;;;;2.13;0.60;;;;;;;;;;5086745;28;20024;-43
2021/11/27 07:27:08;;;;;;;6.30;1.17;;;;;;;;;;5087643;28;20026;-41
2021/11/27 07:29:35;;;;;;;1.75;1.00;;;;;;;;;;5088404;28;20024;-42
2021/11/27 07:32:01;;;;;;;0.88;0.65;;;;;;;;;;5087111;28;20031;-41
2021/11/27 07:34:26;;;;;;;1.20;0.50;;;;;;;;;;5081961;28;20090;-43
2021/11/27 07:36:51;;;;;;;0.52;0.30;;;;;;;;;;5087462;28;20028;-43
2021/11/27 07:39:17;;;;;;;0.63;0.45;;;;;;;;;;5087467;28;20523;-46
2021/11/27 07:41:42;;;;;;;14.13;1.08;;;;;;;;;;5087076;28;20449;-42
2021/11/27 07:44:08;;;;;;;1.95;1.23;;;;;;;;;;5087315;28;20039;-44
2021/11/27 07:46:33;;;;;;;2.78;1.20;;;;;;;;;;5087351;28;20340;-43
2021/11/27 07:48:59;;;;;;;1.48;0.82;;;;;;;;;;5087004;28;20063;-44
2021/11/27 07:51:24;;;;;;;3.83;0.85;;;;;;;;;;5087533;28;20142;-42
2021/11/27 07:53:49;;;;;;;0.68;0.40;;;;;;;;;;5086749;28;20028;-42
2021/11/27 07:56:15;;;;;;;0.52;0.40;;;;;;;;;;5083459;28;20572;-46
2021/11/27 07:58:40;;;;;;;0.85;0.47;;;;;;;;;;5087151;28;20012;-43
2021/11/27 08:01:06;;;;;;;1.85;0.38;;;;;;;;;;5087472;28;20024;-43
2021/11/27 08:03:31;;;;;;;0.93;0.30;;;;;;;;;;5086846;28;20031;-44
2021/11/27 08:05:56;;;;;;;1.27;0.52;;;;;;;;;;5087273;28;20505;-42
2021/11/27 08:08:22;;;;;;;0.40;0.30;;;;;;;;;;5082780;28;20019;-47
2021/11/27 08:10:47;;;;;;;1.90;0.63;;;;;;;;;;5073775;28;20206;-45
2021/11/27 08:13:12;;;;;;;6.25;0.70;;;;;;;;;;5079945;28;20031;-47
2021/11/27 08:15:38;;;;;;;1.02;0.50;;;;;;;;;;5082072;28;20048;-43
2021/11/27 08:18:03;;;;;;;0.35;0.35;;;;;;;;;;5083372;28;20158;-44
2021/11/27 08:20:29;;;;;;;1.58;0.73;;;;;;;;;;5083398;28;20077;-43
2021/11/27 08:22:54;;;;;;;1.35;0.63;;;;;;;;;;5082004;28;20026;-41
2021/11/27 08:25:20;;;;;;;0.80;0.40;;;;;;;;;;5082853;28;20061;-42
2021/11/27 08:27:45;;;;;;;1.35;0.57;;;;;;;;;;5080343;28;20016;-43
2021/11/27 08:30:11;;;;;;;3.90;1.45;;;;;;;;;;5082745;28;20047;-43
2021/11/27 08:32:37;;;;;;;12.02;4.80;;;;;;;;;;5080559;28;20020;-45
2021/11/27 08:35:04;;;;;;;10.40;7.90;;;;;;;;;;5081006;28;20555;-47
2021/11/27 08:37:29;;;;;;;8.85;6.25;;;;;;;;;;5080809;28;20028;-43
2021/11/27 08:39:55;;;;;;;14.35;6.00;;;;;;;;;;5083113;28;20027;-42
2021/11/27 08:42:21;;;;;;;14.45;10.32;;;;;;;;;;5082598;28;20019;-44
2021/11/27 08:44:50;;;;;;;24.50;12.30;;;;;;;;;;5084080;28;20730;-42
2021/11/27 08:47:16;;;;;;;19.45;14.15;;;;;;;;;;5079992;28;20141;-44
2021/11/27 08:49:41;;;;;;;31.58;15.18;;;;;;;;;;5082254;28;20788;-43
2021/11/27 08:52:08;;;;;;;7.50;6.60;;;;;;;;;;5079215;28;20088;-43
2021/11/27 08:54:36;;;;;;;4.25;1.42;;;;;;;;;;5079098;28;20553;-42
2021/11/27 08:57:01;;;;;;;3.90;2.97;;;;;;;;;;5081863;28;20483;-44
2021/11/27 08:59:31;;;;;;;5.70;4.28;;;;;;;;;;5083834;28;20037;-47
2021/11/27 09:01:57;;;;;;;11.32;7.75;;;;;;;;;;5078561;28;20864;-43
2021/11/27 09:04:23;;;;;;;9.95;6.57;;;;;;;;;;5085153;28;20111;-44
2021/11/27 09:06:48;;;;;;;19.40;9.63;;;;;;;;;;5087639;28;20453;-43
2021/11/27 09:09:14;;;;;;;9.75;6.32;;;;;;;;;;5084550;28;20509;-47
2021/11/27 09:11:39;;;;;;;5.38;2.80;;;;;;;;;;5083467;28;20481;-42
2021/11/27 09:14:05;;;;;;;4.57;1.80;;;;;;;;;;5086952;28;20031;-46
2021/11/27 09:16:30;;;;;;;4.47;2.80;;;;;;;;;;5080365;28;20028;-41
2021/11/27 09:18:55;;;;;;;2.72;1.73;;;;;;;;;;5087230;28;20107;-42
2021/11/27 09:21:21;;;;;;;6.45;2.15;;;;;;;;;;5087443;28;20428;-47
2021/11/27 09:23:46;;;;;;;3.90;1.88;;;;;;;;;;5086982;28;20039;-43
2021/11/27 09:26:12;;;;;;;9.32;1.70;;;;;;;;;;5086353;28;20052;-44
2021/11/27 09:28:37;;;;;;;7.30;2.13;;;;;;;;;;5085425;28;20699;-42
2021/11/27 09:31:02;;;;;;;2.17;0.88;;;;;;;;;;5082826;28;20096;-45
2021/11/27 09:33:31;;;;;;;2.22;0.70;;;;;;;;;;5086791;28;20027;-42
2021/11/27 09:36:02;;;;;;;1.40;0.65;;;;;;;;;;5085572;28;20067;-42
2021/11/27 09:38:28;;;;;;;1.42;0.88;;;;;;;;;;5087468;28;20054;-46
2021/11/27 09:41:06;;;;;;;1.77;0.95;;;;;;;;;;5081861;28;20024;-44
2021/11/27 09:43:32;;;;;;;3.97;1.17;;;;;;;;;;5081008;28;20039;-45
2021/11/27 09:45:58;;;;;;;1.00;0.40;;;;;;;;;;5084729;28;20025;-43
2021/11/27 09:48:24;;;;;;;3.38;1.35;;;;;;;;;;5086377;28;20054;-45
2021/11/27 09:50:49;;;;;;;8.60;2.83;;;;;;;;;;5081880;28;20127;-43
2021/11/27 09:53:14;;;;;;;3.35;1.20;;;;;;;;;;5085102;28;20028;-47
2021/11/27 09:55:40;;;;;;;4.50;1.30;;;;;;;;;;5082841;28;20028;-42
2021/11/27 09:58:05;;;;;;;6.57;1.77;;;;;;;;;;5081343;28;20024;-44
2021/11/27 10:00:30;;;;;;;3.97;1.63;;;;;;;;;;5085163;28;20024;-43
2021/11/27 10:02:56;;;;;;;16.90;2.92;;;;;;;;;;5085344;28;20051;-43
2021/11/27 10:05:22;;;;;;;3.65;2.05;;;;;;;;;;5078014;28;20062;-43
2021/11/27 10:07:48;;;;;;;10.95;2.28;;;;;;;;;;5086378;28;20055;-44
2021/11/27 10:10:15;;;;;;;6.65;2.05;;;;;;;;;;5084635;28;20020;-42
2021/11/27 10:12:41;;;;;;;1.95;0.90;;;;;;;;;;5083561;28;20020;-46
2021/11/27 10:15:07;;;;;;;3.85;1.77;;;;;;;;;;5083422;28;20043;-43
2021/11/27 10:17:33;;;;;;;2.35;1.65;;;;;;;;;;5084467;28;20133;-42
2021/11/27 10:19:59;;;;;;;5.70;1.67;;;;;;;;;;5086650;28;20685;-44
2021/11/27 10:22:40;;;;;;;4.18;1.38;;;;;;;;;;5084487;28;20024;-45
2021/11/27 10:25:25;;;;;;;2.35;1.20;;;;;;;;;;5082497;28;20512;-43
2021/11/27 10:27:52;;;;;;;2.15;1.13;;;;;;;;;;5083199;28;20036;-48
2021/11/27 10:30:17;;;;;;;4.15;1.77;;;;;;;;;;5085025;28;20895;-45
2021/11/27 10:32:44;;;;;;;5.65;1.60;;;;;;;;;;5082245;28;20069;-43
2021/11/27 10:35:15;;;;;;;2.13;1.13;;;;;;;;;;5084183;28;20143;-45
2021/11/27 10:37:42;;;;;;;2.35;1.30;;;;;;;;;;5084810;28;20051;-47
2021/11/27 10:40:08;;;;;;;4.32;1.35;;;;;;;;;;5084940;28;20025;-43
2021/11/27 10:42:34;;;;;;;3.53;2.30;;;;;;;;;;5085631;28;20024;-43
2021/11/27 10:45:13;;;;;;;3.10;1.55;;;;;;;;;;5087357;28;20013;-43
2021/11/27 10:47:40;;;;;;;10.75;1.67;;;;;;;;;;5087508;28;20640;-43
2021/11/27 10:50:07;;;;;;;5.10;1.13;;;;;;;;;;5083433;28;20056;-47
2021/11/27 10:52:37;;;;;;;2.42;1.10;;;;;;;;;;5087815;28;20095;-43
2021/11/27 10:55:13;;;;;;;2.50;1.30;;;;;;;;;;5088020;28;20055;-44
2021/11/27 10:57:38;;;;;;;6.05;3.58;;;;;;;;;;5086296;28;20698;-43
2021/11/27 11:00:09;;;;;;;3.50;1.75;;;;;;;;;;5087542;28;20027;-42
2021/11/27 11:02:36;;;;;;;10.50;1.80;;;;;;;;;;5085501;28;20612;-45
2021/11/27 11:05:04;;;;;;;20.17;7.85;;;;;;;;;;5087052;28;20024;-41
2021/11/27 11:07:30;;;;;;;22.67;2.78;;;;;;;;;;5086271;28;20024;-47
2021/11/27 11:10:06;;;;;;;3.92;2.08;;;;;;;;;;5086356;28;20488;-43
2021/11/27 11:12:35;;;;;;;12.07;2.90;;;;;;;;;;5081986;28;20080;-43
2021/11/27 11:15:11;;;;;;;3.72;1.77;;;;;;;;;;5086914;28;20040;-45
2021/11/27 11:17:36;;;;;;;13.13;2.80;;;;;;;;;;5086725;28;20491;-42
2021/11/27 11:20:15;;;;;;;7.85;1.85;;;;;;;;;;5087837;28;20024;-44
2021/11/27 11:22:54;;;;;;;3.13;1.40;;;;;;;;;;5087450;28;20073;-43
2021/11/27 11:25:22;;;;;;;17.38;2.03;;;;;;;;;;5084269;28;20123;-44
2021/11/27 11:27:48;;;;;;;4.95;2.05;;;;;;;;;;5084986;28;20062;-42
2021/11/27 11:30:16;;;;;;;8.63;1.05;;;;;;;;;;5085349;28;20086;-42
2021/11/27 11:32:42;;;;;;;8.55;1.58;;;;;;;;;;5086989;28;20059;-43
2021/11/27 11:35:10;;;;;;;5.43;2.20;;;;;;;;;;5086357;28;20618;-45
2021/11/27 11:37:35;;;;;;;9.68;1.98;;;;;;;;;;5085397;28;20032;-44
2021/11/27 11:40:01;;;;;;;4.13;1.27;;;;;;;;;;5085945;28;20023;-44
2021/11/27 11:42:26;;;;;;;8.80;3.42;;;;;;;;;;5085937;28;20027;-41
2021/11/27 11:44:55;;;;;;;8.48;4.10;;;;;;;;;;5086230;28;20020;-41
2021/11/27 11:47:21;;;;;;;8.57;4.30;;;;;;;;;;5086055;28;20081;-43
2021/11/27 11:49:54;;;;;;;20.45;4.63;;;;;;;;;;5084915;28;20164;-44
2021/11/27 11:52:27;;;;;;;14.70;3.72;;;;;;;;;;5083067;28;20096;-44
2021/11/27 11:55:04;;;;;;;14.13;9.40;;;;;;;;;;5084534;28;20073;-45
2021/11/27 11:57:48;;;;;;;27.27;15.02;;;;;;;;;;5085317;28;20111;-42
2021/11/27 12:00:22;;;;;;;24.52;7.13;;;;;;;;;;5085344;28;20024;-43
2021/11/27 12:02:48;;;;;;;7.72;3.72;;;;;;;;;;5083182;28;20483;-45
2021/11/27 12:05:15;;;;;;;88.75;64.95;;;;;;;;;;5083336;28;20017;-46
2021/11/27 12:07:53;;;;;;;39.03;25.35;;;;;;;;;;5084343;28;20078;-47
2021/11/27 12:10:21;;;;;;;10.30;5.93;;;;;;;;;;5085631;28;20065;-42
2021/11/27 12:13:04;;;;;;;6.88;1.92;;;;;;;;;;5086244;28;20032;-46
2021/11/27 12:15:30;;;;;;;11.20;4.22;;;;;;;;;;5085776;28;20048;-43
2021/11/27 12:18:01;;;;;;;8.05;3.65;;;;;;;;;;5085984;28;20043;-47
2021/11/27 12:20:39;;;;;;;7.13;5.25;;;;;;;;;;5081835;28;20032;-43
2021/11/27 12:23:25;;;;;;;9.68;5.75;;;;;;;;;;5084477;28;20257;-43
2021/11/27 12:26:09;;;;;;;7.53;1.52;;;;;;;;;;5086432;28;20032;-42
2021/11/27 12:28:34;;;;;;;2.65;1.35;;;;;;;;;;5086263;28;20024;-45
2021/11/27 12:31:04;;;;;;;8.02;2.05;;;;;;;;;;5086757;28;20551;-43
2021/11/27 12:33:49;;;;;;;3.80;1.92;;;;;;;;;;5084587;28;20028;-46
2021/11/27 12:36:26;;;;;;;4.10;2.83;;;;;;;;;;5081894;28;20028;-45
2021/11/27 12:39:01;;;;;;;4.40;2.85;;;;;;;;;;5088722;28;20624;-44
2021/11/27 12:41:28;;;;;;;9.00;3.47;;;;;;;;;;5088518;28;20506;-43
2021/11/27 12:44:15;;;;;;;10.93;4.50;;;;;;;;;;5089391;28;20095;-42
2021/11/27 12:46:42;;;;;;;5.88;2.53;;;;;;;;;;5088145;28;20139;-42
2021/11/27 12:49:07;;;;;;;6.13;3.22;;;;;;;;;;5088878;28;20027;-46
2021/11/27 12:51:32;;;;;;;2.95;1.70;;;;;;;;;;5090838;28;20023;-48
2021/11/27 12:53:57;;;;;;;1.38;1.08;;;;;;;;;;5090317;28;20024;-45
2021/11/27 12:56:23;;;;;;;8.07;3.78;;;;;;;;;;5090150;28;20344;-47
2021/11/27 12:58:48;;;;;;;4.15;2.38;;;;;;;;;;5090276;28;20017;-46
2021/11/27 13:01:23;;;;;;;13.15;3.08;;;;;;;;;;5088625;28;20089;-50
2021/11/27 13:03:51;;;;;;;2.50;1.02;;;;;;;;;;5088086;28;20016;-48
2021/11/27 13:06:17;;;;;;;14.40;4.07;;;;;;;;;;5089578;28;20027;-46
2021/11/27 13:08:42;;;;;;;7.15;6.25;;;;;;;;;;5086918;28;20028;-48
2021/11/27 13:11:08;;;;;;;15.38;5.47;;;;;;;;;;5090381;28;20020;-49
2021/11/27 13:13:37;;;;;;;5.40;2.83;;;;;;;;;;5089915;28;20035;-44
2021/11/27 13:16:08;;;;;;;3.10;2.00;;;;;;;;;;5087331;28;20078;-46
2021/11/27 13:18:33;;;;;;;3.50;1.45;;;;;;;;;;5086652;28;20020;-50
2021/11/27 13:20:59;;;;;;;17.00;4.15;;;;;;;;;;5083597;28;20072;-45
2021/11/27 13:23:26;;;;;;;5.20;3.10;;;;;;;;;;5089597;28;20027;-44
2021/11/27 13:25:52;;;;;;;12.13;6.30;;;;;;;;;;5090129;28;20031;-47
2021/11/27 13:28:25;;;;;;;3.30;3.00;;;;;;;;;;5089816;28;20012;-49
2021/11/27 13:30:52;;;;;;;1.85;1.08;;;;;;;;;;5087097;28;20525;-49
2021/11/27 13:33:17;;;;;;;2.50;1.70;;;;;;;;;;5088428;28;20434;-44
2021/11/27 13:35:43;;;;;;;1.48;0.82;;;;;;;;;;5089171;28;20028;-46
2021/11/27 13:38:09;;;;;;;1.23;0.68;;;;;;;;;;5089219;28;20099;-47
2021/11/27 13:40:41;;;;;;;4.00;1.40;;;;;;;;;;5089506;28;20387;-47
2021/11/27 13:43:08;;;;;;;4.10;1.50;;;;;;;;;;5089603;28;20358;-47
2021/11/27 13:45:34;;;;;;;2.17;1.15;;;;;;;;;;5086020;28;20020;-48
2021/11/27 13:48:00;;;;;;;0.98;0.60;;;;;;;;;;5089227;28;20016;-48
2021/11/27 13:50:26;;;;;;;2.17;1.45;;;;;;;;;;5089282;28;20020;-47
2021/11/27 13:52:52;;;;;;;2.53;2.00;;;;;;;;;;5089283;28;20020;-51
2021/11/27 13:55:19;;;;;;;7.10;1.63;;;;;;;;;;5089554;28;20666;-46
2021/11/27 13:57:49;;;;;;;2.20;0.85;;;;;;;;;;5089083;28;20584;-45
2021/11/27 14:00:19;;;;;;;1.05;0.63;;;;;;;;;;5089146;28;20069;-45
2021/11/27 14:02:45;;;;;;;1.58;0.60;;;;;;;;;;5088295;28;20020;-46
2021/11/27 14:05:11;;;;;;;1.95;1.45;;;;;;;;;;5088620;28;20015;-47
2021/11/27 14:07:37;;;;;;;2.58;1.65;;;;;;;;;;5088852;28;20065;-48
2021/11/27 14:10:11;;;;;;;9.55;0.98;;;;;;;;;;5089160;28;20028;-49
2021/11/27 14:12:41;;;;;;;1.05;0.70;;;;;;;;;;5088815;28;20076;-46
2021/11/27 14:15:15;;;;;;;2.72;1.02;;;;;;;;;;5082851;28;20273;-49
2021/11/27 14:18:02;;;;;;;2.67;1.08;;;;;;;;;;5087822;28;20020;-49
2021/11/27 14:20:31;;;;;;;4.10;2.35;;;;;;;;;;5076974;28;20150;-50
2021/11/27 14:23:00;;;;;;;3.15;1.35;;;;;;;;;;5088606;28;20159;-47
2021/11/27 14:25:26;;;;;;;2.28;1.15;;;;;;;;;;5087676;28;20044;-48
2021/11/27 14:27:55;;;;;;;3.60;2.22;;;;;;;;;;5085700;28;20480;-44
2021/11/27 14:30:25;;;;;;;5.05;2.33;;;;;;;;;;5087611;28;20019;-44
2021/11/27 14:32:51;;;;;;;4.75;1.65;;;;;;;;;;5088455;28;20505;-45
2021/11/27 14:35:26;;;;;;;8.60;2.28;;;;;;;;;;5088121;28;20024;-47
2021/11/27 14:37:52;;;;;;;10.98;2.13;;;;;;;;;;5088313;28;20020;-45
2021/11/27 14:40:17;;;;;;;2.47;1.38;;;;;;;;;;5088346;28;20415;-46
2021/11/27 14:42:43;;;;;;;3.05;2.05;;;;;;;;;;5088727;28;20064;-46